Main page
METAR-TAF:

METAR-TAF

Airports :

London Stansted Airport

London-Stansted, England

latitude: 51-53N, longitude: 000-14E, elevation: 106 m

Current weather observation

The report was made 28 minutes ago, at 21:50 UTC
Wind 2 kt from variable directions
Temperature 0°C
Humidity 100%
Pressure 997 hPa
Visibility: 1600 m
Scattered clouds at a height of 200 ft
Scattered clouds at a height of 3500 ft
mist

METAR: EGSS 222150Z VRB02KT 1600 BR SCT002 SCT035 00/00 Q0997

Time: 22:18 (22:18 UTC)

Forecast

The report was made 58 minutes ago, at 21:20 UTC
Forecast valid from 22 at 21 UTC to 23 at 24 UTC
Wind 8 kt from the West
Visibility 10 km or more
Scattered clouds at a height of 2500 ft
Temporary
from 22 at 21 UTC to 23 at 09 UTC
Visibility: 2000 m
Broken clouds at a height of 400 ft
mist
Becoming
from 22 at 23 UTC to 23 at 02 UTC
Wind 10 kt from the Northwest

TAF: EGSS 222120Z 2221/2324 26008KT 9999 SCT025 TEMPO 2221/2309 2000 BR BKN004 BECMG 2223/2302 32010KT

Weather observations and forecasts of more than 4000 airports (METAR and TAF reports).

The available stations are represented by yellow and red dots on the map.

Hover mouse over dot to see the name of the station.

Then click to see weather observations and forecasts.

To change the map : click on the green buttons with a black cross to zoom in, on the green button with a dash to zoom out, or on the green arrows for adjacent maps.


METAR-TAF: